Time;durP1;ratioP1;P1;durP2;ratioP2;P2;SDS_P1;SDS_P2;PMS_P1;PMS_P2;Temp;Humidity;BMP_temperature;BMP_pressure;BME280_temperature;BME280_humidity;BME280_pressure;Samples;Min_cycle;Max_cycle;Signal;HPM_P1;HPM_P2
2022/10/01 00:00:25;;;;;;;4.18;2.90;;;10.40;99.90;;;;;;5011717;28;20177;-89
2022/10/01 00:02:53;;;;;;;7.38;3.35;;;10.30;99.90;;;;;;5011711;28;20209;-90
2022/10/01 00:05:19;;;;;;;2.92;2.63;;;10.40;99.90;;;;;;5012892;28;20532;-90
2022/10/01 00:07:45;;;;;;;3.45;2.83;;;10.40;99.90;;;;;;5013110;28;20236;-90
2022/10/01 00:10:12;;;;;;;3.10;2.80;;;10.50;99.90;;;;;;5011504;28;20193;-89
2022/10/01 00:12:44;;;;;;;2.15;1.67;;;10.90;99.90;;;;;;5011783;28;20197;-90
2022/10/01 00:15:12;;;;;;;6.25;2.92;;;10.30;99.90;;;;;;5012954;28;20173;-88
2022/10/01 00:17:37;;;;;;;3.17;2.88;;;10.30;99.90;;;;;;5011744;28;20192;-89
2022/10/01 00:20:05;;;;;;;3.08;2.65;;;10.30;99.90;;;;;;5015419;28;20565;-89
2022/10/01 00:22:31;;;;;;;4.35;2.38;;;10.30;99.90;;;;;;5016399;28;20618;-89
2022/10/01 00:25:01;;;;;;;3.45;3.00;;;10.40;99.90;;;;;;5016613;28;20207;-89
2022/10/01 00:27:27;;;;;;;5.40;3.23;;;10.30;99.90;;;;;;5016300;28;20381;-89
2022/10/01 00:29:53;;;;;;;5.13;3.15;;;11.30;99.90;;;;;;5016305;28;20229;-90
2022/10/01 00:32:20;;;;;;;5.60;3.15;;;10.70;99.90;;;;;;5016068;28;20177;-89
2022/10/01 00:34:47;;;;;;;4.28;3.33;;;11.10;99.90;;;;;;5016484;28;20231;-89
2022/10/01 00:37:13;;;;;;;4.30;2.78;;;10.20;99.90;;;;;;5016067;28;20196;-90
2022/10/01 00:39:39;;;;;;;4.07;2.60;;;10.20;99.90;;;;;;5016150;28;20213;-90
2022/10/01 00:42:17;;;;;;;2.83;1.97;;;10.20;99.90;;;;;;5014811;28;20544;-90
2022/10/01 00:44:43;;;;;;;5.27;3.60;;;10.20;99.90;;;;;;5016538;28;20299;-89
2022/10/01 00:47:30;;;;;;;5.03;2.83;;;10.20;99.90;;;;;;5015996;28;20229;-90
2022/10/01 00:50:31;;;;;;;5.10;2.60;;;10.20;99.90;;;;;;5015133;28;20280;-90
2022/10/01 00:53:01;;;;;;;5.47;3.37;;;10.10;99.90;;;;;;5013302;28;20215;-89
2022/10/01 00:55:35;;;;;;;3.73;2.90;;;10.10;99.90;;;;;;5016126;28;20181;-89
2022/10/01 00:58:02;;;;;;;3.58;3.13;;;10.10;99.90;;;;;;5015819;28;20591;-90
2022/10/01 01:00:29;;;;;;;3.97;2.80;;;10.10;99.90;;;;;;5015652;28;20247;-89
2022/10/01 01:02:54;;;;;;;7.85;2.88;;;10.10;99.90;;;;;;5015922;28;20177;-90
2022/10/01 01:05:21;;;;;;;9.20;4.23;;;10.10;99.90;;;;;;5015724;28;20523;-89
2022/10/01 01:07:51;;;;;;;7.70;3.70;;;10.20;99.90;;;;;;5015978;28;20177;-91
2022/10/01 01:10:25;;;;;;;4.45;3.15;;;10.20;99.90;;;;;;5015555;28;20176;-90
2022/10/01 01:13:29;;;;;;;5.32;2.95;;;10.20;99.90;;;;;;5016086;28;20157;-91
2022/10/01 01:16:24;;;;;;;3.27;2.83;;;10.20;99.90;;;;;;5015099;28;20165;-91
2022/10/01 01:19:01;;;;;;;5.83;2.70;;;10.20;99.90;;;;;;5014400;28;20620;-91
2022/10/01 01:21:42;;;;;;;5.93;4.43;;;10.10;99.90;;;;;;5014012;28;20642;-90
2022/10/01 01:24:25;;;;;;;3.60;2.10;;;10.10;99.90;;;;;;5015619;28;20658;-91
2022/10/01 01:27:05;;;;;;;4.83;3.97;;;10.10;99.90;;;;;;5015763;28;20173;-91
2022/10/01 01:30:04;;;;;;;2.90;2.67;;;10.10;99.90;;;;;;5015111;28;20268;-91
2022/10/01 01:32:45;;;;;;;2.58;1.65;;;10.70;99.90;;;;;;5004383;28;20189;-91
2022/10/01 01:35:17;;;;;;;4.40;2.72;;;10.10;99.90;;;;;;5024039;28;20165;-91
2022/10/01 01:37:50;;;;;;;4.83;2.70;;;10.10;99.90;;;;;;5029275;28;20169;-91
2022/10/01 01:40:18;;;;;;;3.42;2.08;;;10.10;99.90;;;;;;5028455;28;20209;-91
2022/10/01 01:42:46;;;;;;;3.47;2.50;;;10.00;99.90;;;;;;5015433;28;20181;-89
2022/10/01 01:45:17;;;;;;;4.18;3.08;;;10.80;99.90;;;;;;5014949;28;20619;-89
2022/10/01 01:47:44;;;;;;;2.88;2.60;;;10.10;99.90;;;;;;5014657;28;20161;-89
2022/10/01 01:50:13;;;;;;;2.47;2.28;;;10.10;99.90;;;;;;5014845;28;20199;-90
2022/10/01 01:52:40;;;;;;;6.78;2.90;;;10.70;99.90;;;;;;5013369;28;20247;-89
2022/10/01 01:55:07;;;;;;;3.20;2.90;;;10.00;99.90;;;;;;5015021;28;20190;-89
2022/10/01 01:57:38;;;;;;;3.80;3.50;;;10.00;99.90;;;;;;5013782;28;20231;-90
2022/10/01 02:00:04;;;;;;;3.10;2.80;;;10.10;99.90;;;;;;5015233;28;20219;-89
2022/10/01 02:02:34;;;;;;;4.30;3.27;;;10.00;99.90;;;;;;5014783;28;20177;-89
2022/10/01 02:05:06;;;;;;;6.10;2.15;;;11.30;99.90;;;;;;5014915;28;20189;-90
2022/10/01 02:07:52;;;;;;;3.17;2.60;;;10.00;99.90;;;;;;5014643;28;20181;-89
2022/10/01 02:10:39;;;;;;;4.65;3.28;;;10.00;99.90;;;;;;5014837;28;20295;-89
2022/10/01 02:13:22;;;;;;;4.85;3.05;;;10.10;99.90;;;;;;5015169;28;20173;-89
2022/10/01 02:16:08;;;;;;;6.27;2.97;;;10.10;99.90;;;;;;5014940;28;20177;-89
2022/10/01 02:18:39;;;;;;;4.47;4.07;;;10.30;99.90;;;;;;5014535;28;20258;-89
2022/10/01 02:21:13;;;;;;;8.98;3.08;;;10.00;99.90;;;;;;5014853;28;20181;-88
2022/10/01 02:24:05;;;;;;;4.53;3.47;;;10.10;99.90;;;;;;5014205;28;20164;-90
2022/10/01 02:26:33;;;;;;;2.97;2.13;;;11.20;99.90;;;;;;5014630;28;20191;-89
2022/10/01 02:29:04;;;;;;;3.80;3.30;;;10.00;99.90;;;;;;5014624;28;20188;-91
2022/10/01 02:31:31;;;;;;;4.22;2.97;;;10.10;99.90;;;;;;5014225;28;20193;-90
2022/10/01 02:33:58;;;;;;;5.45;2.15;;;10.00;99.90;;;;;;5014648;28;20181;-90
2022/10/01 02:36:27;;;;;;;5.57;3.53;;;10.00;99.90;;;;;;5014584;28;20630;-91
2022/10/01 02:38:55;;;;;;;2.73;2.33;;;10.70;99.90;;;;;;5013077;28;20254;-90
2022/10/01 02:41:25;;;;;;;9.15;2.38;;;10.00;99.90;;;;;;5013952;28;20220;-90
2022/10/01 02:44:09;;;;;;;3.38;3.03;;;10.00;99.90;;;;;;5014244;28;20196;-90
2022/10/01 02:46:45;;;;;;;2.80;1.80;;;10.00;99.90;;;;;;5014420;28;20170;-90
2022/10/01 02:49:12;;;;;;;3.47;3.03;;;10.00;99.90;;;;;;5014373;28;20212;-91
2022/10/01 02:52:03;;;;;;;4.30;2.77;;;11.30;99.90;;;;;;5013880;28;20280;-91
2022/10/01 02:54:36;;;;;;;1.60;1.50;;;10.00;99.90;;;;;;5014029;28;20166;-92
2022/10/01 02:59:46;;;;;;;4.87;3.70;;;10.50;99.90;;;;;;5013409;28;20727;-90
2022/10/01 03:02:12;;;;;;;4.20;2.15;;;10.00;99.90;;;;;;5013444;28;20189;-91
2022/10/01 03:04:37;;;;;;;7.53;3.40;;;10.00;99.90;;;;;;5014382;28;20216;-90
2022/10/01 03:07:03;;;;;;;4.17;3.23;;;10.40;99.90;;;;;;5015141;28;20185;-90
2022/10/01 03:09:33;;;;;;;2.23;2.00;;;10.10;99.90;;;;;;5015065;28;20185;-89
2022/10/01 03:11:59;;;;;;;4.90;3.23;;;10.30;99.90;;;;;;5014129;28;20184;-90
2022/10/01 03:14:26;;;;;;;4.47;3.30;;;10.10;99.90;;;;;;5013947;28;20177;-89
2022/10/01 03:16:52;;;;;;;3.40;2.03;;;10.20;99.90;;;;;;5013480;28;20180;-90
2022/10/01 03:19:17;;;;;;;4.40;3.30;;;10.20;99.90;;;;;;5013809;28;20217;-90
2022/10/01 03:21:43;;;;;;;2.33;2.13;;;10.20;99.90;;;;;;4996163;28;20238;-89
2022/10/01 03:24:09;;;;;;;2.63;2.17;;;10.20;99.90;;;;;;5014253;28;20637;-90
2022/10/01 03:26:35;;;;;;;4.45;3.38;;;10.20;99.90;;;;;;5014410;28;20178;-90
2022/10/01 03:29:01;;;;;;;4.17;2.63;;;10.20;99.90;;;;;;5022947;28;20255;-90
2022/10/01 03:31:27;;;;;;;3.22;2.72;;;10.20;99.90;;;;;;5022403;28;20177;-90
2022/10/01 03:33:53;;;;;;;5.22;3.47;;;10.20;99.90;;;;;;5020926;28;20177;-90
2022/10/01 03:36:18;;;;;;;2.00;1.80;;;11.10;99.90;;;;;;5023165;28;20192;-90
2022/10/01 03:38:44;;;;;;;2.67;1.92;;;10.30;99.90;;;;;;5020709;28;20224;-91
2022/10/01 03:41:09;;;;;;;3.17;2.88;;;11.00;99.90;;;;;;5020290;28;20614;-91
2022/10/01 03:43:35;;;;;;;2.60;1.95;;;10.20;99.90;;;;;;5022380;28;20176;-90
2022/10/01 03:46:01;;;;;;;3.43;2.43;;;10.10;99.90;;;;;;5021255;28;20183;-91
2022/10/01 03:48:27;;;;;;;4.53;3.30;;;11.00;99.90;;;;;;5022209;28;20192;-90
2022/10/01 03:50:54;;;;;;;2.58;2.38;;;10.00;99.90;;;;;;5023201;28;20196;-90
2022/10/01 03:53:20;;;;;;;2.63;2.42;;;10.70;99.90;;;;;;5022531;28;20176;-91
2022/10/01 03:55:46;;;;;;;4.30;2.70;;;10.00;99.90;;;;;;5011095;28;20310;-91
2022/10/01 03:58:11;;;;;;;2.07;1.87;;;10.40;99.90;;;;;;5030228;28;20599;-91
2022/10/01 04:00:37;;;;;;;4.33;2.27;;;10.00;99.90;;;;;;5034965;28;20188;-90
2022/10/01 04:03:03;;;;;;;4.97;3.20;;;10.00;99.90;;;;;;5031095;28;20238;-90
2022/10/01 04:05:28;;;;;;;3.93;2.93;;;10.00;99.90;;;;;;5036458;28;20185;-89
2022/10/01 04:07:54;;;;;;;2.20;2.00;;;10.00;99.90;;;;;;5042546;28;20201;-88
2022/10/01 04:10:19;;;;;;;5.97;3.47;;;10.00;99.90;;;;;;5038691;28;20188;-89
2022/10/01 04:12:45;;;;;;;3.28;3.03;;;10.00;99.90;;;;;;5021110;28;20181;-89
2022/10/01 04:15:10;;;;;;;4.07;2.50;;;10.70;99.90;;;;;;5039150;28;20196;-88
2022/10/01 04:17:36;;;;;;;3.83;3.15;;;10.00;99.90;;;;;;5032181;28;20185;-89
2022/10/01 04:20:02;;;;;;;2.37;1.80;;;10.00;99.90;;;;;;5029395;28;20223;-90
2022/10/01 04:22:27;;;;;;;1.95;1.85;;;10.00;99.90;;;;;;5049178;28;20667;-90
2022/10/01 04:24:53;;;;;;;3.33;2.43;;;11.30;99.90;;;;;;5035740;28;20562;-89
2022/10/01 04:27:19;;;;;;;3.37;3.07;;;10.00;99.90;;;;;;5019075;28;20249;-89
2022/10/01 04:29:44;;;;;;;4.53;3.40;;;10.00;99.90;;;;;;5000427;28;20566;-87
2022/10/01 04:32:11;;;;;;;2.80;2.58;;;10.50;99.90;;;;;;5017070;28;20236;-88
2022/10/01 04:34:51;;;;;;;4.25;2.42;;;10.00;99.90;;;;;;5016676;28;20181;-86
2022/10/01 04:37:21;;;;;;;2.17;2.00;;;10.00;99.90;;;;;;5028882;28;20196;-86
2022/10/01 04:39:47;;;;;;;7.55;2.83;;;10.10;99.90;;;;;;5029480;28;20642;-87
2022/10/01 04:42:12;;;;;;;3.43;3.07;;;10.10;99.90;;;;;;5027339;28;20223;-87
2022/10/01 04:44:38;;;;;;;2.97;2.58;;;10.00;99.90;;;;;;5026811;28;20731;-86
2022/10/01 04:47:04;;;;;;;4.57;3.03;;;10.10;99.90;;;;;;5023589;28;20550;-87
2022/10/01 04:49:31;;;;;;;5.30;3.43;;;10.00;99.90;;;;;;5025745;28;20199;-86
2022/10/01 04:51:57;;;;;;;4.10;3.70;;;11.10;99.90;;;;;;5022709;28;20219;-86
2022/10/01 04:54:23;;;;;;;6.20;3.35;;;10.10;99.90;;;;;;5032436;28;20188;-86
2022/10/01 04:56:49;;;;;;;3.93;2.83;;;10.10;99.90;;;;;;5031991;28;20193;-87
2022/10/01 04:59:14;;;;;;;4.43;3.72;;;10.10;99.90;;;;;;5024968;28;20211;-86
2022/10/01 05:01:40;;;;;;;6.63;4.10;;;11.10;99.90;;;;;;5025668;28;20557;-86
2022/10/01 05:04:07;;;;;;;4.20;2.80;;;10.10;99.90;;;;;;5025118;28;20224;-86
2022/10/01 05:06:33;;;;;;;4.60;3.97;;;10.10;99.90;;;;;;5024424;28;20187;-87
2022/10/01 05:08:59;;;;;;;2.83;2.50;;;10.10;99.90;;;;;;5015541;28;20181;-86
2022/10/01 05:11:25;;;;;;;4.33;3.53;;;10.10;99.90;;;;;;5015824;28;20323;-86
2022/10/01 05:13:50;;;;;;;6.83;3.33;;;10.10;99.90;;;;;;5015359;28;20184;-86
2022/10/01 05:16:16;;;;;;;7.80;4.70;;;11.80;99.90;;;;;;4997748;28;20185;-86
2022/10/01 05:18:42;;;;;;;3.03;2.30;;;10.10;99.90;;;;;;5023094;28;20677;-87
2022/10/01 05:21:14;;;;;;;3.22;2.88;;;11.60;99.90;;;;;;5022963;28;20658;-87
2022/10/01 05:23:40;;;;;;;5.20;4.10;;;10.20;99.90;;;;;;5022992;28;20176;-87
2022/10/01 05:26:07;;;;;;;4.43;2.73;;;10.10;99.90;;;;;;5019908;28;20200;-86
2022/10/01 05:28:33;;;;;;;4.60;3.05;;;10.20;99.90;;;;;;5020539;28;20213;-86
2022/10/01 05:30:59;;;;;;;4.97;2.90;;;10.50;99.90;;;;;;5034112;28;20641;-86
2022/10/01 05:33:26;;;;;;;4.20;2.53;;;10.40;99.90;;;;;;5020208;28;20193;-87
2022/10/01 05:35:52;;;;;;;3.47;3.10;;;10.20;99.90;;;;;;5014721;28;20177;-86
2022/10/01 05:38:18;;;;;;;6.10;3.70;;;10.20;99.90;;;;;;5014812;28;20192;-86
2022/10/01 05:40:47;;;;;;;4.27;3.43;;;10.20;99.90;;;;;;5014681;28;20558;-85
2022/10/01 05:43:13;;;;;;;3.90;3.20;;;11.20;99.90;;;;;;5014842;28;20182;-85
2022/10/01 05:45:39;;;;;;;6.30;2.57;;;10.20;99.90;;;;;;5014671;28;20259;-86
2022/10/01 05:48:07;;;;;;;6.10;4.03;;;10.20;99.90;;;;;;5028078;28;20227;-86
2022/10/01 05:50:39;;;;;;;5.30;3.65;;;11.00;99.90;;;;;;5034697;28;20279;-86
2022/10/01 05:53:05;;;;;;;4.47;3.28;;;11.20;99.90;;;;;;5034160;28;20253;-86
2022/10/01 05:55:33;;;;;;;3.95;2.50;;;10.80;99.90;;;;;;5034619;28;20180;-88
2022/10/01 05:58:03;;;;;;;4.00;2.90;;;10.20;99.90;;;;;;5032294;28;20184;-90
2022/10/01 06:00:30;;;;;;;5.30;3.50;;;10.30;99.90;;;;;;5032221;28;20196;-93
2022/10/01 06:02:57;;;;;;;5.77;3.60;;;10.30;99.90;;;;;;5033445;28;20204;-94
2022/10/01 06:05:23;;;;;;;5.38;4.07;;;10.30;99.90;;;;;;5032433;28;20212;-93
2022/10/01 06:07:49;;;;;;;3.03;2.70;;;10.40;99.90;;;;;;5022107;28;20258;-94
2022/10/01 06:10:15;;;;;;;3.00;2.15;;;11.50;99.90;;;;;;5023122;28;20637;-96
2022/10/01 06:12:42;;;;;;;6.40;4.60;;;10.40;99.90;;;;;;5027674;28;20181;-91
2022/10/01 06:15:08;;;;;;;7.07;4.55;;;10.40;99.90;;;;;;5014389;28;20196;-92
2022/10/01 06:17:34;;;;;;;5.97;4.10;;;10.40;99.90;;;;;;5033265;28;20176;-95
2022/10/01 06:20:00;;;;;;;3.75;3.45;;;10.50;99.90;;;;;;5033834;28;20216;-93
2022/10/01 06:22:26;;;;;;;10.60;3.60;;;10.50;99.90;;;;;;5035441;28;20192;-93
2022/10/01 06:24:51;;;;;;;6.55;3.38;;;10.50;99.90;;;;;;5014173;28;20189;-93
2022/10/01 06:27:17;;;;;;;7.00;3.40;;;10.40;99.90;;;;;;5035351;28;20665;-94
2022/10/01 06:29:43;;;;;;;4.53;3.50;;;10.50;99.90;;;;;;5033108;28;20228;-92
2022/10/01 06:32:12;;;;;;;7.53;3.63;;;10.50;99.90;;;;;;5017585;28;20521;-93
2022/10/01 06:34:38;;;;;;;3.85;3.28;;;10.50;99.90;;;;;;5032431;28;20184;-90
2022/10/01 06:37:04;;;;;;;5.50;3.47;;;10.50;99.90;;;;;;5022559;28;20181;-87
2022/10/01 06:39:29;;;;;;;6.63;2.97;;;10.50;99.90;;;;;;5022248;28;20743;-86
2022/10/01 06:41:55;;;;;;;4.75;4.22;;;11.30;99.90;;;;;;5020800;28;20188;-86
2022/10/01 06:44:21;;;;;;;4.22;2.58;;;10.60;99.90;;;;;;5021649;28;20303;-86
2022/10/01 06:46:46;;;;;;;4.07;3.00;;;10.60;99.90;;;;;;5019652;28;20189;-87
2022/10/01 06:49:12;;;;;;;3.40;3.05;;;11.50;99.90;;;;;;5031335;28;20239;-87
2022/10/01 06:54:22;;;;;;;2.30;1.83;;;10.60;99.90;;;;;;5023817;28;20183;-87
2022/10/01 06:56:48;;;;;;;4.13;2.90;;;10.70;99.90;;;;;;5022139;28;20178;-88
2022/10/01 06:59:13;;;;;;;10.75;3.80;;;10.70;99.90;;;;;;5020768;28;20196;-87
2022/10/01 07:01:39;;;;;;;6.63;3.45;;;11.40;99.90;;;;;;5022675;28;20185;-88
2022/10/01 07:04:04;;;;;;;2.10;1.98;;;10.80;99.90;;;;;;5020257;28;20177;-89
2022/10/01 07:06:31;;;;;;;4.22;2.75;;;12.30;99.90;;;;;;5031330;28;20181;-89
2022/10/01 07:08:57;;;;;;;5.18;3.55;;;10.90;99.90;;;;;;5031225;28;20602;-87
2022/10/01 07:11:23;;;;;;;3.42;3.15;;;11.00;99.90;;;;;;5014832;28;20172;-88
2022/10/01 07:13:49;;;;;;;5.60;3.67;;;11.20;99.90;;;;;;5033090;28;20512;-88
2022/10/01 07:16:15;;;;;;;3.53;3.13;;;11.00;99.90;;;;;;5032638;28;20259;-87
2022/10/01 07:18:40;;;;;;;5.43;3.05;;;11.00;99.90;;;;;;5032468;28;20291;-88
2022/10/01 07:21:06;;;;;;;5.47;3.65;;;11.00;99.90;;;;;;5028677;28;20716;-89
2022/10/01 07:23:32;;;;;;;6.47;3.72;;;11.10;99.90;;;;;;5034015;28;20278;-86
2022/10/01 07:25:57;;;;;;;6.65;4.20;;;11.10;99.90;;;;;;5041584;28;20649;-86
2022/10/01 07:28:25;;;;;;;6.50;4.10;;;11.10;99.90;;;;;;5040646;28;20192;-87
2022/10/01 07:31:02;;;;;;;5.22;3.58;;;11.20;99.90;;;;;;5032295;28;20243;-87
2022/10/01 07:33:28;;;;;;;6.60;4.63;;;11.10;99.90;;;;;;5031725;28;20191;-88
2022/10/01 07:35:54;;;;;;;4.85;3.55;;;11.30;99.90;;;;;;5031157;28;20188;-86
2022/10/01 07:38:20;;;;;;;5.32;3.90;;;11.40;99.90;;;;;;5013134;28;20195;-87
2022/10/01 07:40:53;;;;;;;4.57;3.85;;;11.50;99.90;;;;;;5030787;28;20271;-86
2022/10/01 07:43:19;;;;;;;6.85;4.70;;;11.50;99.90;;;;;;5029734;28;20657;-87
2022/10/01 07:45:46;;;;;;;6.15;4.38;;;11.50;99.90;;;;;;5030549;28;20211;-88
2022/10/01 07:48:13;;;;;;;5.57;4.93;;;11.60;99.90;;;;;;5013732;28;20546;-89
2022/10/01 07:50:42;;;;;;;5.57;3.10;;;11.70;99.90;;;;;;5013646;28;20184;-88
2022/10/01 07:53:07;;;;;;;5.68;3.17;;;11.70;99.90;;;;;;5030368;28;20424;-87
2022/10/01 07:55:33;;;;;;;4.05;2.85;;;11.20;99.90;;;;;;5030165;28;20623;-89
2022/10/01 07:58:01;;;;;;;3.78;2.90;;;11.60;99.90;;;;;;5029814;28;20197;-86
2022/10/01 08:00:29;;;;;;;3.63;3.30;;;11.60;99.90;;;;;;5013839;28;20726;-89
2022/10/01 08:02:55;;;;;;;6.25;4.30;;;12.20;99.90;;;;;;5030832;28;20649;-89
2022/10/01 08:05:23;;;;;;;5.65;3.80;;;11.70;99.90;;;;;;5030452;28;20196;-89
2022/10/01 08:07:49;;;;;;;5.25;4.28;;;13.20;99.90;;;;;;5029920;28;20207;-90
2022/10/01 08:10:16;;;;;;;5.68;3.60;;;11.90;99.90;;;;;;5031065;28;20291;-87
2022/10/01 08:12:43;;;;;;;6.50;4.28;;;12.00;99.90;;;;;;5028725;28;20549;-89
2022/10/01 08:15:10;;;;;;;4.72;4.20;;;12.00;99.90;;;;;;5030419;28;20227;-87
2022/10/01 08:17:37;;;;;;;4.88;3.08;;;12.10;99.90;;;;;;5029882;28;20185;-86
2022/10/01 08:20:05;;;;;;;3.58;3.28;;;12.20;99.90;;;;;;5031489;28;20217;-87
2022/10/01 08:22:31;;;;;;;4.53;2.92;;;12.20;99.90;;;;;;5029419;28;20267;-87
2022/10/01 08:24:56;;;;;;;3.65;2.90;;;12.30;99.90;;;;;;5029940;28;20204;-89
2022/10/01 08:27:26;;;;;;;6.63;3.83;;;12.80;99.90;;;;;;5029003;28;20191;-91
2022/10/01 08:29:53;;;;;;;5.75;4.20;;;12.40;99.90;;;;;;5026220;28;20228;-89
2022/10/01 08:32:19;;;;;;;9.73;4.38;;;12.40;99.90;;;;;;5024570;28;20189;-88
2022/10/01 08:34:45;;;;;;;4.55;3.65;;;12.30;99.90;;;;;;5028546;28;20633;-87
2022/10/01 08:37:11;;;;;;;5.18;3.30;;;12.30;99.90;;;;;;5027323;28;20192;-85
2022/10/01 08:39:36;;;;;;;5.43;3.28;;;12.20;99.90;;;;;;5030274;28;20219;-86
2022/10/01 08:42:40;;;;;;;3.50;2.75;;;12.20;99.90;;;;;;5032667;28;20200;-88
2022/10/01 08:45:25;;;;;;;3.30;3.10;;;12.30;99.90;;;;;;5031283;28;20489;-88
2022/10/01 08:48:04;;;;;;;5.18;3.15;;;12.30;99.90;;;;;;5029480;28;20184;-89
2022/10/01 08:50:51;;;;;;;3.65;3.08;;;12.30;99.90;;;;;;5048519;28;20194;-87
2022/10/01 08:53:28;;;;;;;3.75;3.08;;;12.20;99.90;;;;;;5050307;28;20524;-88
2022/10/01 08:55:56;;;;;;;5.13;4.10;;;12.20;99.90;;;;;;5032755;28;20649;-90
2022/10/01 08:58:28;;;;;;;6.72;3.67;;;12.30;99.90;;;;;;5030625;28;20231;-88
2022/10/01 09:00:54;;;;;;;6.78;4.55;;;12.30;99.90;;;;;;5031375;28;20180;-90
2022/10/01 09:03:20;;;;;;;5.53;3.15;;;12.30;99.90;;;;;;5029801;28;20189;-90
2022/10/01 09:06:24;;;;;;;11.52;5.88;;;12.40;99.90;;;;;;5037785;28;20409;-87
2022/10/01 09:09:26;;;;;;;7.13;3.67;;;12.40;99.90;;;;;;5034962;28;20211;-87
2022/10/01 09:12:03;;;;;;;4.47;3.75;;;12.40;99.90;;;;;;5033255;28;20727;-89
2022/10/01 09:15:02;;;;;;;4.95;3.20;;;12.40;99.90;;;;;;5033930;28;20190;-89
2022/10/01 09:17:52;;;;;;;4.35;3.13;;;12.40;99.90;;;;;;5032432;28;20231;-88
2022/10/01 09:20:35;;;;;;;3.45;2.92;;;12.40;99.90;;;;;;5030187;28;20315;-86
2022/10/01 09:23:18;;;;;;;7.80;3.35;;;12.50;99.90;;;;;;5031268;28;20520;-90
2022/10/01 09:25:49;;;;;;;4.65;3.67;;;12.60;99.90;;;;;;5031041;28;20211;-87
2022/10/01 09:28:17;;;;;;;3.70;3.33;;;12.60;99.90;;;;;;5032830;28;20192;-86
2022/10/01 09:30:53;;;;;;;5.47;3.22;;;12.60;99.90;;;;;;5031448;28;20224;-87
2022/10/01 09:33:20;;;;;;;4.32;3.20;;;12.70;99.90;;;;;;5031173;28;20657;-88
2022/10/01 09:35:50;;;;;;;8.32;3.28;;;12.80;99.90;;;;;;5032387;28;20185;-89
2022/10/01 09:38:31;;;;;;;6.45;4.57;;;12.80;99.90;;;;;;5032161;28;20172;-88
2022/10/01 09:40:58;;;;;;;5.13;3.08;;;12.90;99.90;;;;;;5034586;28;20197;-87
2022/10/01 09:43:29;;;;;;;4.88;4.00;;;12.90;99.90;;;;;;5033568;28;20255;-86
2022/10/01 09:45:56;;;;;;;3.28;2.40;;;13.00;99.90;;;;;;5034819;28;20204;-86
2022/10/01 09:48:48;;;;;;;3.65;2.85;;;13.00;99.90;;;;;;5034550;28;20212;-86
2022/10/01 09:51:21;;;;;;;5.90;3.35;;;13.00;99.90;;;;;;5033318;28;20183;-87
2022/10/01 09:54:02;;;;;;;3.90;2.90;;;13.10;99.90;;;;;;5036315;28;20161;-91
2022/10/01 09:56:32;;;;;;;5.50;2.47;;;13.10;99.90;;;;;;5036025;28;20715;-90
2022/10/01 09:59:03;;;;;;;4.25;3.03;;;13.20;99.90;;;;;;5035279;28;20292;-88
2022/10/01 10:01:49;;;;;;;3.22;2.92;;;13.30;99.90;;;;;;5037306;28;20177;-87
2022/10/01 10:04:22;;;;;;;9.05;3.63;;;13.50;99.90;;;;;;5037857;28;20263;-87
2022/10/01 10:06:50;;;;;;;3.78;2.72;;;13.70;99.90;;;;;;5031314;28;20515;-88
2022/10/01 10:09:26;;;;;;;5.15;3.55;;;13.70;99.90;;;;;;5019765;28;20184;-87
2022/10/01 10:11:55;;;;;;;4.82;3.25;;;13.80;99.90;;;;;;5034012;28;20259;-87
2022/10/01 10:14:29;;;;;;;4.50;1.95;;;13.70;99.90;;;;;;5032573;28;20234;-88
2022/10/01 10:16:55;;;;;;;3.20;2.40;;;13.60;99.90;;;;;;5023488;28;20161;-89
2022/10/01 10:19:25;;;;;;;5.38;1.95;;;13.60;99.90;;;;;;5033193;28;20291;-88
2022/10/01 10:21:59;;;;;;;6.75;3.33;;;13.60;99.90;;;;;;5030929;28;20239;-88
2022/10/01 10:24:33;;;;;;;3.75;2.88;;;13.60;99.90;;;;;;5033583;28;20210;-88
2022/10/01 10:27:03;;;;;;;4.68;2.60;;;13.60;99.90;;;;;;5031976;28;20203;-87
2022/10/01 10:29:33;;;;;;;3.53;2.00;;;13.60;99.90;;;;;;5032819;28;20316;-90
2022/10/01 10:32:03;;;;;;;4.30;2.63;;;13.50;99.90;;;;;;5020949;28;20170;-88
2022/10/01 10:34:37;;;;;;;5.43;3.63;;;13.60;99.90;;;;;;5022418;28;20243;-86
2022/10/01 10:37:15;;;;;;;6.20;2.75;;;13.60;99.90;;;;;;5029343;28;20173;-87
2022/10/01 10:39:48;;;;;;;3.35;2.17;;;13.80;99.90;;;;;;5031264;28;20281;-88
2022/10/01 10:42:14;;;;;;;3.75;2.92;;;14.10;99.90;;;;;;5033335;28;20172;-86
2022/10/01 10:44:44;;;;;;;5.30;2.70;;;14.30;99.90;;;;;;5032153;28;20180;-87
2022/10/01 10:47:13;;;;;;;4.20;2.67;;;14.40;99.90;;;;;;5033039;28;20168;-88
2022/10/01 10:49:50;;;;;;;3.15;2.63;;;14.60;99.90;;;;;;5033046;28;20180;-89
2022/10/01 10:52:28;;;;;;;3.38;2.15;;;14.70;99.90;;;;;;5033973;28;20195;-90
2022/10/01 10:54:57;;;;;;;5.63;3.95;;;14.70;99.90;;;;;;5033492;28;20167;-88
2022/10/01 10:57:27;;;;;;;6.22;3.22;;;14.90;99.90;;;;;;5033470;28;20172;-89
2022/10/01 10:59:58;;;;;;;2.92;2.60;;;14.90;99.90;;;;;;5033338;28;20204;-89
2022/10/01 11:02:29;;;;;;;5.13;2.78;;;14.80;99.90;;;;;;5032507;28;20180;-89
2022/10/01 11:04:56;;;;;;;5.00;3.20;;;14.90;99.90;;;;;;5033008;28;20173;-90
2022/10/01 11:07:25;;;;;;;6.50;3.17;;;15.00;99.90;;;;;;5031880;28;20588;-89
2022/10/01 11:10:18;;;;;;;9.38;2.65;;;15.10;99.90;;;;;;5021549;28;20222;-88
2022/10/01 11:13:05;;;;;;;4.78;3.13;;;15.20;99.90;;;;;;5030902;28;20231;-88
2022/10/01 11:15:37;;;;;;;5.60;3.20;;;15.30;99.90;;;;;;5025471;28;20177;-88
2022/10/01 11:18:27;;;;;;;3.20;2.10;;;15.30;99.90;;;;;;5022492;28;20169;-89
2022/10/01 11:21:30;;;;;;;4.07;2.50;;;15.30;99.90;;;;;;5025614;28;20177;-87
2022/10/01 11:24:06;;;;;;;6.20;2.72;;;15.40;99.90;;;;;;5036404;28;20566;-88
2022/10/01 11:26:54;;;;;;;3.88;2.97;;;15.20;99.90;;;;;;5030880;28;20648;-90
2022/10/01 11:30:08;;;;;;;3.88;2.28;;;15.20;99.90;;;;;;5029943;28;20327;-87
2022/10/01 11:32:44;;;;;;;7.05;3.22;;;15.20;99.90;;;;;;4984447;28;20200;-88
2022/10/01 11:35:41;;;;;;;4.75;2.90;;;15.30;99.90;;;;;;5028980;28;20633;-88
2022/10/01 11:38:35;;;;;;;3.65;2.72;;;15.40;99.90;;;;;;5030287;28;20645;-88
2022/10/01 11:41:24;;;;;;;4.57;2.50;;;15.30;99.90;;;;;;5012191;28;20193;-89
2022/10/01 11:43:53;;;;;;;3.55;2.20;;;15.20;99.90;;;;;;5011086;28;20196;-90
2022/10/01 11:46:34;;;;;;;5.03;2.92;;;15.10;99.90;;;;;;5012619;28;20173;-89
2022/10/01 11:49:31;;;;;;;3.50;3.15;;;15.10;99.90;;;;;;5027493;28;20640;-90
2022/10/01 11:52:31;;;;;;;4.22;2.75;;;15.20;99.90;;;;;;5030181;28;20188;-90
2022/10/01 11:58:50;;;;;;;3.92;2.20;;;15.10;99.90;;;;;;5028825;28;20243;-91
2022/10/01 12:01:33;;;;;;;5.53;2.45;;;15.20;99.90;;;;;;5028034;28;20272;-90
2022/10/01 12:04:05;;;;;;;3.80;2.55;;;15.20;99.90;;;;;;5030974;28;20216;-90
2022/10/01 12:06:37;;;;;;;4.45;2.22;;;15.30;99.90;;;;;;5030549;28;20179;-88
2022/10/01 12:09:25;;;;;;;3.70;2.15;;;15.40;99.90;;;;;;5029296;28;20181;-89
2022/10/01 12:12:10;;;;;;;5.25;2.10;;;15.40;99.90;;;;;;5030393;28;20535;-89
2022/10/01 12:14:39;;;;;;;4.22;2.13;;;15.40;99.90;;;;;;5032609;28;20634;-89
2022/10/01 12:17:23;;;;;;;3.30;2.17;;;15.40;99.90;;;;;;5023092;28;20201;-88
2022/10/01 12:19:52;;;;;;;5.65;2.00;;;15.40;99.90;;;;;;5031087;28;20269;-87
2022/10/01 12:22:34;;;;;;;4.63;2.25;;;15.40;99.90;;;;;;5024287;28;20287;-89
2022/10/01 12:25:00;;;;;;;3.03;2.38;;;15.40;99.90;;;;;;5033785;28;20236;-89
2022/10/01 12:27:38;;;;;;;3.10;2.58;;;15.50;99.90;;;;;;5034031;28;20188;-90
2022/10/01 12:30:23;;;;;;;2.80;2.53;;;15.50;99.90;;;;;;5033400;28;20228;-88
2022/10/01 12:33:08;;;;;;;3.78;1.83;;;15.50;99.90;;;;;;5024444;28;20665;-89
2022/10/01 12:35:41;;;;;;;4.85;2.83;;;15.40;99.90;;;;;;5037543;28;20173;-91
2022/10/01 12:38:16;;;;;;;4.13;2.58;;;15.30;99.90;;;;;;5031650;28;20177;-89
2022/10/01 12:41:02;;;;;;;3.15;2.63;;;15.30;99.90;;;;;;5039099;28;20263;-89
2022/10/01 12:43:49;;;;;;;4.20;2.42;;;15.20;99.90;;;;;;5044672;28;20184;-91
2022/10/01 12:46:38;;;;;;;3.60;2.03;;;15.30;99.90;;;;;;5040178;28;20715;-90
2022/10/01 12:49:21;;;;;;;3.65;2.35;;;15.30;99.90;;;;;;5038131;28;20176;-90
2022/10/01 12:52:00;;;;;;;2.83;1.88;;;15.30;99.90;;;;;;5028919;28;20212;-90
2022/10/01 12:54:44;;;;;;;2.88;2.22;;;15.40;99.90;;;;;;5042190;28;20692;-88
2022/10/01 12:57:33;;;;;;;3.45;1.85;;;15.40;99.90;;;;;;5042410;28;20251;-91
2022/10/01 13:00:19;;;;;;;2.20;1.88;;;15.50;99.90;;;;;;5038401;28;20657;-88
2022/10/01 13:02:50;;;;;;;3.50;2.65;;;15.60;99.90;;;;;;5036723;28;20215;-89
2022/10/01 13:05:30;;;;;;;3.88;2.72;;;15.60;99.90;;;;;;5038254;28;20191;-88
2022/10/01 13:08:14;;;;;;;4.00;2.63;;;15.70;99.90;;;;;;5038336;28;20160;-88
2022/10/01 13:10:51;;;;;;;2.53;1.92;;;15.70;99.90;;;;;;5037710;28;20266;-88
2022/10/01 13:13:20;;;;;;;3.70;2.20;;;15.70;99.90;;;;;;5032897;28;20657;-88
2022/10/01 13:15:54;;;;;;;3.35;2.33;;;15.50;99.90;;;;;;5031379;28;20181;-88
2022/10/01 13:18:51;;;;;;;2.70;2.08;;;15.50;99.90;;;;;;5025940;28;20193;-89